createdAt,value
2018-12-16T00:01:39.121Z,-0.10
2018-12-16T00:04:13.607Z,0.00
2018-12-16T00:06:45.300Z,-0.10
2018-12-16T00:09:17.256Z,-0.20
2018-12-16T00:11:49.255Z,-0.20
2018-12-16T00:14:23.767Z,-0.20
2018-12-16T00:16:55.363Z,-0.20
2018-12-16T00:19:27.118Z,-0.40
2018-12-16T00:21:59.159Z,-0.30
2018-12-16T00:24:31.233Z,-0.20
2018-12-16T00:27:11.405Z,-0.20
2018-12-16T00:29:45.649Z,-0.20
2018-12-16T00:32:17.997Z,0.00
2018-12-16T00:34:52.690Z,-0.10
2018-12-16T00:37:25.423Z,-0.10
2018-12-16T00:39:57.379Z,-0.10
2018-12-16T00:42:29.621Z,-0.10
2018-12-16T00:45:01.603Z,-0.20
2018-12-16T00:47:33.899Z,-0.20
2018-12-16T00:50:06.470Z,-0.10
2018-12-16T00:52:37.164Z,-0.20
2018-12-16T01:52:49.847Z,0.10
2018-12-16T01:55:16.613Z,0.10
2018-12-16T01:57:48.782Z,0.10
2018-12-16T02:00:20.743Z,0.30
2018-12-16T02:02:53.094Z,0.30
2018-12-16T02:05:24.906Z,0.20
2018-12-16T02:07:57.195Z,0.30
2018-12-16T02:10:29.229Z,0.30
2018-12-16T02:13:01.380Z,0.40
2018-12-16T02:15:33.422Z,0.30
2018-12-16T02:18:05.642Z,0.40
2018-12-16T02:20:37.991Z,0.40
2018-12-16T02:23:09.752Z,0.40
2018-12-16T02:25:41.638Z,0.40
2018-12-16T02:28:13.694Z,0.40
2018-12-16T02:30:48.069Z,0.50
2018-12-16T02:33:19.461Z,0.50
2018-12-16T02:35:53.993Z,0.50
2018-12-16T02:52:51.747Z,0.50
2018-12-16T02:55:25.727Z,0.40
2018-12-16T02:57:59.654Z,0.30
2018-12-16T03:00:31.271Z,0.30
2018-12-16T03:03:03.176Z,0.10
2018-12-16T03:05:35.139Z,0.10
2018-12-16T03:08:07.527Z,0.20
2018-12-16T03:10:39.524Z,0.20
2018-12-16T03:13:11.683Z,0.20
2018-12-16T03:15:46.356Z,0.10
2018-12-16T03:18:18.079Z,0.20
2018-12-16T03:20:49.936Z,0.20
2018-12-16T03:23:21.805Z,0.20
2018-12-16T03:25:53.920Z,0.20
2018-12-16T03:28:25.973Z,0.10
2018-12-16T03:30:58.084Z,0.10
2018-12-16T03:33:32.513Z,0.10
2018-12-16T03:36:07.426Z,0.00
2018-12-16T03:38:41.370Z,0.10
2018-12-16T03:41:13.828Z,0.10
2018-12-16T03:43:45.770Z,0.00
2018-12-16T03:46:20.044Z,-0.10
2018-12-16T03:48:51.739Z,-0.10
2018-12-16T03:51:23.971Z,0.00
2018-12-16T03:53:56.023Z,0.10
2018-12-16T03:56:28.042Z,0.00
2018-12-16T03:59:08.118Z,-0.10
2018-12-16T04:01:40.213Z,-0.10
2018-12-16T04:04:12.352Z,-0.20
2018-12-16T04:06:44.571Z,-0.40
2018-12-16T04:09:16.739Z,-0.40
2018-12-16T04:11:48.362Z,-0.50
2018-12-16T04:14:20.554Z,-0.40
2018-12-16T04:16:52.516Z,-0.40
2018-12-16T04:19:24.802Z,-0.40
2018-12-16T04:21:56.815Z,-0.40
2018-12-16T04:24:31.228Z,-0.50
2018-12-16T04:27:06.091Z,-0.40
2018-12-16T04:29:38.605Z,-0.30
2018-12-16T04:32:10.661Z,-0.20
2018-12-16T04:34:45.153Z,-0.20
2018-12-16T04:37:17.450Z,-0.50
2018-12-16T04:39:49.674Z,-0.50
2018-12-16T04:42:21.650Z,-0.50
2018-12-16T04:44:53.806Z,-0.40
2018-12-16T04:47:28.333Z,-0.40
2018-12-16T04:50:00.074Z,-0.40
2018-12-16T04:52:34.447Z,-0.50
2018-12-16T04:55:08.421Z,-0.40
2018-12-16T04:57:39.934Z,-0.30
2018-12-16T05:02:40.934Z,-0.10
2018-12-16T05:05:17.233Z,-0.10
2018-12-16T05:07:52.068Z,-0.10
2018-12-16T05:25:23.566Z,-0.40
2018-12-16T05:32:55.432Z,-0.40
2018-12-16T05:35:27.685Z,-0.30
2018-12-16T05:37:59.809Z,-0.30
2018-12-16T06:00:01.001Z,-0.20
2018-12-16T06:02:32.573Z,-0.10
2018-12-16T06:05:04.450Z,-0.10
2018-12-16T06:07:32.809Z,-0.10
2018-12-16T06:10:01.314Z,-0.10
2018-12-16T06:12:29.671Z,-0.10
2018-12-16T06:14:58.026Z,-0.20
2018-12-16T06:17:26.382Z,-0.20
2018-12-16T06:19:54.771Z,-0.20
2018-12-16T06:22:23.165Z,-0.50
2018-12-16T06:24:51.494Z,-0.60
2018-12-16T06:27:19.842Z,-0.50
2018-12-16T06:29:51.734Z,-0.50
2018-12-16T06:32:23.367Z,-0.40
2018-12-16T06:34:55.582Z,-0.40
2018-12-16T06:37:30.026Z,-0.30
2018-12-16T06:40:01.714Z,-0.30
2018-12-16T06:42:36.218Z,-0.40
2018-12-16T06:45:08.061Z,-0.30
2018-12-16T06:47:36.521Z,-0.30
2018-12-16T06:50:06.570Z,-0.20
2018-12-16T06:52:35.634Z,-0.20
2018-12-16T06:55:04.373Z,-0.20
2018-12-16T06:57:33.183Z,-0.20
2018-12-16T07:00:01.644Z,-0.10
2018-12-16T07:02:30.070Z,-0.10
2018-12-16T07:04:58.479Z,-0.10
2018-12-16T07:07:26.883Z,0.00
2018-12-16T07:09:55.279Z,0.00
2018-12-16T07:12:23.589Z,0.00
2018-12-16T07:14:51.946Z,0.00
2018-12-16T07:17:20.315Z,0.00
2018-12-16T07:19:48.872Z,0.00
2018-12-16T07:22:17.227Z,0.00
2018-12-16T07:24:45.661Z,-0.10
2018-12-16T07:27:21.202Z,-0.10
2018-12-16T07:29:49.586Z,-0.20
2018-12-16T07:32:17.920Z,-0.10
2018-12-16T07:34:46.303Z,0.00
2018-12-16T07:37:19.051Z,0.00
2018-12-16T07:39:45.069Z,0.00
2018-12-16T07:42:13.491Z,0.00
2018-12-16T07:44:41.981Z,0.00
2018-12-16T07:47:11.618Z,0.00
2018-12-16T07:49:40.169Z,0.00
2018-12-16T07:52:08.582Z,0.00
2018-12-16T07:54:37.149Z,0.00
2018-12-16T07:57:05.521Z,0.00
2018-12-16T07:59:33.992Z,0.00
2018-12-16T08:02:02.558Z,0.00
2018-12-16T08:04:31.044Z,0.00
2018-12-16T08:07:05.744Z,0.10
2018-12-16T08:09:39.663Z,0.10
2018-12-16T08:12:11.526Z,0.10
2018-12-16T08:14:43.338Z,0.00
2018-12-16T08:17:15.238Z,0.10
2018-12-16T08:19:45.489Z,0.20
2018-12-16T08:22:17.408Z,0.20
2018-12-16T08:24:49.570Z,-0.10
2018-12-16T08:27:21.564Z,-0.20
2018-12-16T08:29:54.459Z,-0.20
2018-12-16T08:32:28.978Z,-0.30
2018-12-16T08:35:00.667Z,-0.20
2018-12-16T08:37:32.926Z,-0.20
2018-12-16T08:40:05.663Z,-0.20
2018-12-16T08:42:36.211Z,-0.20
2018-12-16T08:45:11.354Z,-0.20
2018-12-16T08:47:43.722Z,-0.10
2018-12-16T08:50:17.937Z,0.00
2018-12-16T08:52:52.767Z,0.10
2018-12-16T08:55:22.928Z,0.00
2018-12-16T08:57:51.308Z,0.10
2018-12-16T09:00:21.168Z,0.10
2018-12-16T09:02:49.702Z,0.10
2018-12-16T09:05:18.097Z,0.10
2018-12-16T09:07:48.408Z,0.20
2018-12-16T09:12:50.189Z,0.30
2018-12-16T09:26:50.123Z,0.20
2018-12-16T09:29:24.591Z,0.20
2018-12-16T09:31:58.451Z,0.20
2018-12-16T09:34:29.985Z,0.30
2018-12-16T09:37:04.359Z,0.30
2018-12-16T09:39:39.001Z,0.40
2018-12-16T09:42:07.534Z,0.50
2018-12-16T09:44:36.134Z,0.50
2018-12-16T09:47:10.246Z,0.40
2018-12-16T09:49:40.670Z,0.50
2018-12-16T09:52:12.530Z,0.50
2018-12-16T09:54:44.704Z,0.40
2018-12-16T09:57:17.081Z,0.50
2018-12-16T09:59:48.989Z,0.50
2018-12-16T10:02:21.555Z,0.60
2018-12-16T10:04:55.555Z,0.50
2018-12-16T10:07:30.319Z,0.60
2018-12-16T10:10:02.065Z,0.60
2018-12-16T10:12:34.477Z,0.80
2018-12-16T10:15:06.889Z,0.70
2018-12-16T10:17:38.730Z,0.60
2018-12-16T10:20:12.092Z,0.70
2018-12-16T10:22:46.511Z,0.60
2018-12-16T10:39:42.793Z,0.90
2018-12-16T10:42:20.962Z,0.80
2018-12-16T10:45:11.314Z,0.90
2018-12-16T10:47:51.404Z,0.90
2018-12-16T10:50:32.507Z,1.00
2018-12-16T10:53:06.761Z,1.00
2018-12-16T10:55:37.671Z,1.10
2018-12-16T10:58:10.487Z,1.10
2018-12-16T11:00:48.414Z,1.20
2018-12-16T11:40:46.584Z,1.60
2018-12-16T11:43:18.230Z,1.60
2018-12-16T11:45:50.263Z,1.70
2018-12-16T11:48:22.504Z,1.60
2018-12-16T11:50:54.925Z,1.70
2018-12-16T11:53:26.930Z,1.70
2018-12-16T11:55:59.108Z,1.70
2018-12-16T11:58:31.255Z,1.70
2018-12-16T12:01:05.688Z,1.70
2018-12-16T12:03:37.897Z,1.70
2018-12-16T12:06:12.001Z,1.70
2018-12-16T12:08:46.869Z,1.70
2018-12-16T12:11:18.506Z,1.70
2018-12-16T12:13:52.718Z,1.80
2018-12-16T12:16:27.704Z,1.90
2018-12-16T12:19:02.971Z,1.90
2018-12-16T12:21:36.099Z,1.80
2018-12-16T12:24:08.112Z,2.00
2018-12-16T12:26:40.803Z,1.90
2018-12-16T12:29:12.803Z,1.90
2018-12-16T12:31:44.642Z,1.90
2018-12-16T12:34:17.179Z,1.90
2018-12-16T12:36:49.511Z,1.90
2018-12-16T12:39:21.747Z,1.90
2018-12-16T12:41:56.075Z,1.90
2018-12-16T12:44:27.734Z,1.90
2018-12-16T12:46:59.510Z,1.90
2018-12-16T12:49:34.101Z,1.90
2018-12-16T12:52:07.070Z,1.90
2018-12-16T12:54:39.912Z,2.00
2018-12-16T12:57:15.255Z,2.10
2018-12-16T12:59:49.005Z,2.10
2018-12-16T13:02:23.398Z,2.10
2018-12-16T13:04:58.408Z,2.20
2018-12-16T13:07:30.786Z,2.20
2018-12-16T13:10:02.916Z,2.30
2018-12-16T13:12:41.166Z,2.40
2018-12-16T13:15:12.792Z,2.30
2018-12-16T13:17:44.677Z,2.40
2018-12-16T13:20:16.595Z,2.30
2018-12-16T13:22:57.646Z,2.30
2018-12-16T13:25:37.658Z,2.30
2018-12-16T13:28:11.954Z,2.20
2018-12-16T13:30:45.790Z,2.30
2018-12-16T13:33:17.617Z,2.40
2018-12-16T13:35:49.886Z,2.50
2018-12-16T13:38:21.683Z,2.50
2018-12-16T13:40:53.690Z,2.50
2018-12-16T13:43:32.274Z,2.50
2018-12-16T13:49:09.117Z,2.60
2018-12-16T13:51:42.327Z,2.60
2018-12-16T15:09:07.747Z,2.60
2018-12-16T15:11:41.759Z,2.60
2018-12-16T15:14:13.746Z,2.60
2018-12-16T15:16:45.830Z,2.70
2018-12-16T15:19:17.901Z,2.60
2018-12-16T15:21:50.078Z,2.60
2018-12-16T16:40:06.085Z,2.60
2018-12-16T16:42:34.718Z,2.70
2018-12-16T16:47:59.458Z,2.70
2018-12-16T16:50:31.559Z,2.80
2018-12-16T16:53:03.660Z,2.80
2018-12-16T16:55:35.963Z,2.80
2018-12-16T16:58:10.250Z,2.80
2018-12-16T17:00:44.135Z,2.80
2018-12-16T17:03:15.673Z,2.80
2018-12-16T17:05:47.760Z,2.80
2018-12-16T17:08:19.844Z,2.80
2018-12-16T17:10:54.429Z,2.80
2018-12-16T17:13:28.574Z,2.80
2018-12-16T17:16:00.134Z,2.80
2018-12-16T17:18:32.094Z,2.80
2018-12-16T17:21:04.313Z,2.80
2018-12-16T17:37:59.619Z,2.90
2018-12-16T17:40:31.695Z,2.90
2018-12-16T17:43:03.483Z,2.90
2018-12-16T17:45:35.797Z,2.90
2018-12-16T17:48:07.804Z,2.90
2018-12-16T17:50:40.006Z,2.90
2018-12-16T17:53:12.210Z,3.00
2018-12-16T17:55:46.485Z,3.00
2018-12-16T17:58:18.047Z,3.00
2018-12-16T18:00:50.539Z,3.00
2018-12-16T18:03:22.608Z,3.00
2018-12-16T18:05:54.386Z,3.10
2018-12-16T18:08:26.412Z,3.10
2018-12-16T18:11:00.977Z,3.10
2018-12-16T18:13:35.065Z,3.00
2018-12-16T18:16:06.869Z,3.00
2018-12-16T18:18:39.030Z,3.00
2018-12-16T18:21:13.224Z,3.00
2018-12-16T18:23:47.391Z,3.00
2018-12-16T18:26:23.957Z,3.00
2018-12-16T18:28:59.707Z,3.00
2018-12-16T18:31:31.918Z,3.00
2018-12-16T18:34:06.124Z,2.90
2018-12-16T18:36:36.629Z,3.00
2018-12-16T18:39:09.597Z,2.90
2018-12-16T18:41:44.439Z,3.00
2018-12-16T18:44:18.631Z,3.00
2018-12-16T18:46:49.220Z,3.00
2018-12-16T18:49:20.875Z,3.00
2018-12-16T18:51:55.373Z,3.00
2018-12-16T18:54:33.334Z,3.00
2018-12-16T18:57:07.630Z,2.90
2018-12-16T18:59:48.834Z,2.90
2018-12-16T19:02:21.208Z,2.90
2018-12-16T19:39:24.745Z,2.80
2018-12-16T19:41:58.258Z,2.80
2018-12-16T19:44:36.960Z,2.80
2018-12-16T19:47:20.597Z,2.80
2018-12-16T19:49:55.600Z,2.70
2018-12-16T19:52:30.240Z,2.70
2018-12-16T19:55:05.084Z,2.70
2018-12-16T19:57:39.145Z,2.70
2018-12-16T20:00:12.425Z,2.70
2018-12-16T20:02:42.781Z,2.70
2018-12-16T20:05:20.811Z,2.70
2018-12-16T20:07:50.178Z,2.70
2018-12-16T20:10:18.838Z,2.70
2018-12-16T20:12:48.090Z,2.70
2018-12-16T20:15:17.047Z,2.70
2018-12-16T20:17:45.623Z,2.70
2018-12-16T20:20:20.511Z,2.70
2018-12-16T20:22:52.890Z,2.70
2018-12-16T20:48:26.078Z,2.80
2018-12-16T20:50:54.509Z,2.80
2018-12-16T20:53:22.879Z,2.80
2018-12-16T20:55:52.563Z,2.80
2018-12-16T20:58:21.092Z,2.80
2018-12-16T21:00:49.667Z,2.80
2018-12-16T21:03:18.911Z,2.80
2018-12-16T21:05:47.848Z,2.80
2018-12-16T21:08:16.380Z,2.80
2018-12-16T21:10:45.186Z,2.90
2018-12-16T21:13:18.873Z,2.90
2018-12-16T21:15:52.695Z,2.90
2018-12-16T21:18:23.934Z,2.90
2018-12-16T21:20:54.839Z,2.90
2018-12-16T21:23:24.522Z,3.00
2018-12-16T21:25:54.072Z,3.00
2018-12-16T21:28:23.636Z,3.00
2018-12-16T21:30:58.230Z,3.10
2018-12-16T21:33:26.611Z,3.00
2018-12-16T21:35:55.662Z,3.10
2018-12-16T21:38:25.649Z,3.10
2018-12-16T21:40:55.746Z,3.10
2018-12-16T21:43:25.366Z,3.10
2018-12-16T21:45:54.703Z,3.10
2018-12-16T21:48:23.842Z,3.10
2018-12-16T21:50:52.791Z,3.00
2018-12-16T22:39:32.570Z,3.40
2018-12-16T22:42:06.699Z,3.40
2018-12-16T22:44:35.050Z,3.40
2018-12-16T22:47:06.555Z,3.40
2018-12-16T22:49:36.219Z,3.40
2018-12-16T22:52:08.218Z,3.40
2018-12-16T22:54:40.090Z,3.20
2018-12-16T22:57:09.768Z,3.20
2018-12-16T22:59:38.141Z,3.30
2018-12-16T23:02:08.400Z,3.30
2018-12-16T23:04:40.294Z,3.40
2018-12-16T23:07:08.647Z,3.40
2018-12-16T23:09:38.706Z,3.40
2018-12-16T23:12:10.697Z,3.40
2018-12-16T23:14:44.904Z,3.40
2018-12-16T23:17:18.891Z,3.40
2018-12-16T23:19:54.932Z,3.40
2018-12-16T23:22:26.442Z,3.40
2018-12-16T23:24:56.950Z,3.40
2018-12-16T23:27:28.445Z,3.40
2018-12-16T23:30:00.233Z,3.40
2018-12-16T23:32:32.551Z,3.50
2018-12-16T23:35:05.047Z,3.50
2018-12-16T23:37:37.054Z,3.50
2018-12-16T23:40:09.024Z,3.40
2018-12-16T23:42:40.813Z,3.40
2018-12-16T23:45:13.894Z,3.50
2018-12-16T23:47:47.810Z,3.40
2018-12-16T23:50:20.218Z,3.30
2018-12-16T23:52:50.123Z,3.40
2018-12-16T23:55:22.175Z,3.40
2018-12-16T23:58:00.895Z,3.40
